sensor_id;sensor_type;location;lat;lon;timestamp;pressure;altitude;pressure_sealevel;temperature;humidity
57094;BME280;42970;50.996;3.706;2022-11-15T00:00:23;76255.38;;;-146.65;100.00
57094;BME280;42970;50.996;3.706;2022-11-15T00:02:48;76257.38;;;-146.65;100.00
57094;BME280;42970;50.996;3.706;2022-11-15T00:05:13;76251.34;;;-146.65;100.00
57094;BME280;42970;50.996;3.706;2022-11-15T00:07:39;76247.31;;;-146.65;100.00
57094;BME280;42970;50.996;3.706;2022-11-15T00:10:04;76245.28;;;-146.65;100.00
57094;BME280;42970;50.996;3.706;2022-11-15T00:12:30;76245.28;;;-146.65;100.00
57094;BME280;42970;50.996;3.706;2022-11-15T00:14:55;76241.25;;;-146.65;100.00
57094;BME280;42970;50.996;3.706;2022-11-15T00:17:20;76247.31;;;-146.65;100.00
57094;BME280;42970;50.996;3.706;2022-11-15T00:19:46;76241.25;;;-146.65;100.00
57094;BME280;42970;50.996;3.706;2022-11-15T00:22:11;76241.25;;;-146.65;100.00
57094;BME280;42970;50.996;3.706;2022-11-15T00:24:36;76237.22;;;-146.65;100.00
57094;BME280;42970;50.996;3.706;2022-11-15T00:27:02;76251.34;;;-146.65;100.00
57094;BME280;42970;50.996;3.706;2022-11-15T00:29:27;76247.31;;;-146.65;100.00
57094;BME280;42970;50.996;3.706;2022-11-15T00:31:52;76245.28;;;-146.65;100.00
57094;BME280;42970;50.996;3.706;2022-11-15T00:34:18;76249.31;;;-146.65;100.00
57094;BME280;42970;50.996;3.706;2022-11-15T00:36:43;76241.25;;;-146.65;100.00
57094;BME280;42970;50.996;3.706;2022-11-15T00:39:08;76241.25;;;-146.65;100.00
57094;BME280;42970;50.996;3.706;2022-11-15T00:41:34;76247.31;;;-146.65;100.00
57094;BME280;42970;50.996;3.706;2022-11-15T00:43:59;76247.31;;;-146.65;100.00
57094;BME280;42970;50.996;3.706;2022-11-15T00:46:24;76251.34;;;-146.65;100.00
57094;BME280;42970;50.996;3.706;2022-11-15T00:48:50;76253.34;;;-146.65;100.00
57094;BME280;42970;50.996;3.706;2022-11-15T00:51:15;76255.38;;;-146.65;100.00
57094;BME280;42970;50.996;3.706;2022-11-15T00:53:40;76255.38;;;-146.65;100.00
57094;BME280;42970;50.996;3.706;2022-11-15T00:56:07;76251.34;;;-146.65;100.00
57094;BME280;42970;50.996;3.706;2022-11-15T00:58:32;76253.34;;;-146.65;100.00
57094;BME280;42970;50.996;3.706;2022-11-15T01:01:04;76251.34;;;-146.65;100.00
57094;BME280;42970;50.996;3.706;2022-11-15T01:03:32;76255.38;;;-146.65;100.00
57094;BME280;42970;50.996;3.706;2022-11-15T01:05:58;76261.44;;;-146.65;100.00
57094;BME280;42970;50.996;3.706;2022-11-15T01:08:24;76269.50;;;-146.65;100.00
57094;BME280;42970;50.996;3.706;2022-11-15T01:10:50;76263.44;;;-146.65;100.00
57094;BME280;42970;50.996;3.706;2022-11-15T01:13:15;76259.41;;;-146.65;100.00
57094;BME280;42970;50.996;3.706;2022-11-15T01:15:40;76255.38;;;-146.65;100.00
57094;BME280;42970;50.996;3.706;2022-11-15T01:18:06;76245.28;;;-146.65;100.00
57094;BME280;42970;50.996;3.706;2022-11-15T01:20:31;76251.34;;;-146.65;100.00
57094;BME280;42970;50.996;3.706;2022-11-15T01:22:56;76249.31;;;-146.65;100.00
57094;BME280;42970;50.996;3.706;2022-11-15T01:25:22;76247.31;;;-146.65;100.00
57094;BME280;42970;50.996;3.706;2022-11-15T01:27:47;76247.31;;;-146.65;100.00
57094;BME280;42970;50.996;3.706;2022-11-15T01:30:12;76245.28;;;-146.65;100.00
57094;BME280;42970;50.996;3.706;2022-11-15T01:32:38;76243.28;;;-146.65;100.00
57094;BME280;42970;50.996;3.706;2022-11-15T01:35:03;76241.25;;;-146.65;100.00
57094;BME280;42970;50.996;3.706;2022-11-15T01:37:28;76241.25;;;-146.65;100.00
57094;BME280;42970;50.996;3.706;2022-11-15T01:39:53;76235.19;;;-146.65;100.00
57094;BME280;42970;50.996;3.706;2022-11-15T01:42:19;76237.22;;;-146.65;100.00
57094;BME280;42970;50.996;3.706;2022-11-15T01:44:48;76237.22;;;-146.65;100.00
57094;BME280;42970;50.996;3.706;2022-11-15T01:47:27;76233.19;;;-146.65;100.00
57094;BME280;42970;50.996;3.706;2022-11-15T01:50:00;76235.19;;;-146.65;100.00
57094;BME280;42970;50.996;3.706;2022-11-15T01:52:26;76239.22;;;-146.65;100.00
57094;BME280;42970;50.996;3.706;2022-11-15T01:54:58;76243.28;;;-146.65;100.00
57094;BME280;42970;50.996;3.706;2022-11-15T01:57:24;76239.22;;;-146.65;100.00
57094;BME280;42970;50.996;3.706;2022-11-15T01:59:49;76247.31;;;-146.65;100.00
57094;BME280;42970;50.996;3.706;2022-11-15T02:02:14;76247.31;;;-146.65;100.00
57094;BME280;42970;50.996;3.706;2022-11-15T02:04:41;76237.22;;;-146.65;100.00
57094;BME280;42970;50.996;3.706;2022-11-15T02:07:07;76233.19;;;-146.65;100.00
57094;BME280;42970;50.996;3.706;2022-11-15T02:09:35;76231.16;;;-146.65;100.00
57094;BME280;42970;50.996;3.706;2022-11-15T02:12:01;76231.16;;;-146.65;100.00
57094;BME280;42970;50.996;3.706;2022-11-15T02:14:26;76239.22;;;-146.65;100.00
57094;BME280;42970;50.996;3.706;2022-11-15T02:32:03;76231.16;;;-146.65;100.00
57094;BME280;42970;50.996;3.706;2022-11-15T02:34:34;76233.19;;;-146.65;100.00
57094;BME280;42970;50.996;3.706;2022-11-15T02:42:00;76219.06;;;-146.65;100.00
57094;BME280;42970;50.996;3.706;2022-11-15T02:44:30;76219.06;;;-146.65;100.00
57094;BME280;42970;50.996;3.706;2022-11-15T02:46:59;76215.03;;;-146.65;100.00
57094;BME280;42970;50.996;3.706;2022-11-15T02:49:42;76219.06;;;-146.65;100.00
57094;BME280;42970;50.996;3.706;2022-11-15T02:52:08;76217.03;;;-146.65;100.00
57094;BME280;42970;50.996;3.706;2022-11-15T02:54:34;76223.09;;;-146.65;100.00
57094;BME280;42970;50.996;3.706;2022-11-15T02:57:04;76219.06;;;-146.65;100.00
57094;BME280;42970;50.996;3.706;2022-11-15T03:07:10;76223.09;;;-146.65;100.00
57094;BME280;42970;50.996;3.706;2022-11-15T03:09:45;76217.03;;;-146.65;100.00
57094;BME280;42970;50.996;3.706;2022-11-15T03:12:29;76227.13;;;-146.65;100.00
57094;BME280;42970;50.996;3.706;2022-11-15T03:15:10;76237.22;;;-146.65;100.00
57094;BME280;42970;50.996;3.706;2022-11-15T03:17:38;76241.25;;;-146.65;100.00
57094;BME280;42970;50.996;3.706;2022-11-15T03:20:06;76237.22;;;-146.65;100.00
57094;BME280;42970;50.996;3.706;2022-11-15T03:22:33;76247.31;;;-146.65;100.00
57094;BME280;42970;50.996;3.706;2022-11-15T03:25:00;76245.28;;;-146.65;100.00
57094;BME280;42970;50.996;3.706;2022-11-15T03:27:28;76257.38;;;-146.65;100.00
57094;BME280;42970;50.996;3.706;2022-11-15T03:29:57;76255.38;;;-146.65;100.00
57094;BME280;42970;50.996;3.706;2022-11-15T03:32:25;76255.38;;;-146.65;100.00
57094;BME280;42970;50.996;3.706;2022-11-15T03:37:16;76275.53;;;-146.65;100.00
57094;BME280;42970;50.996;3.706;2022-11-15T03:39:43;76279.59;;;-146.65;100.00
57094;BME280;42970;50.996;3.706;2022-11-15T03:47:36;76303.78;;;-146.65;100.00
57094;BME280;42970;50.996;3.706;2022-11-15T03:50:11;76307.81;;;-146.65;100.00
57094;BME280;42970;50.996;3.706;2022-11-15T03:52:37;76313.88;;;-146.65;100.00
57094;BME280;42970;50.996;3.706;2022-11-15T03:55:04;76307.81;;;-146.65;100.00
57094;BME280;42970;50.996;3.706;2022-11-15T03:57:30;76311.84;;;-146.65;100.00
57094;BME280;42970;50.996;3.706;2022-11-15T03:59:56;76301.78;;;-146.65;100.00
57094;BME280;42970;50.996;3.706;2022-11-15T04:02:21;76301.78;;;-146.65;100.00
57094;BME280;42970;50.996;3.706;2022-11-15T04:04:46;76307.81;;;-146.65;100.00
57094;BME280;42970;50.996;3.706;2022-11-15T04:07:11;76315.91;;;-146.65;100.00
57094;BME280;42970;50.996;3.706;2022-11-15T04:09:37;76325.97;;;-146.65;100.00
57094;BME280;42970;50.996;3.706;2022-11-15T04:12:21;76330.00;;;-146.65;100.00
57094;BME280;42970;50.996;3.706;2022-11-15T04:14:55;76340.09;;;-146.65;100.00
57094;BME280;42970;50.996;3.706;2022-11-15T04:17:32;76350.19;;;-146.65;100.00
57094;BME280;42970;50.996;3.706;2022-11-15T04:19:57;76356.25;;;-146.65;100.00
57094;BME280;42970;50.996;3.706;2022-11-15T04:22:41;76360.28;;;-146.65;100.00
57094;BME280;42970;50.996;3.706;2022-11-15T04:25:25;76368.34;;;-146.65;100.00
57094;BME280;42970;50.996;3.706;2022-11-15T04:27:50;76364.31;;;-146.65;100.00
57094;BME280;42970;50.996;3.706;2022-11-15T04:30:15;76366.34;;;-146.65;100.00
57094;BME280;42970;50.996;3.706;2022-11-15T04:32:40;76378.44;;;-146.65;100.00
57094;BME280;42970;50.996;3.706;2022-11-15T04:35:06;76380.44;;;-146.65;100.00
57094;BME280;42970;50.996;3.706;2022-11-15T04:37:31;76404.66;;;-146.65;100.00
57094;BME280;42970;50.996;3.706;2022-11-15T04:39:56;76404.66;;;-146.65;100.00
57094;BME280;42970;50.996;3.706;2022-11-15T04:42:22;76408.69;;;-146.65;100.00
57094;BME280;42970;50.996;3.706;2022-11-15T04:44:48;76412.72;;;-146.65;100.00
57094;BME280;42970;50.996;3.706;2022-11-15T04:47:13;76416.78;;;-146.65;100.00
57094;BME280;42970;50.996;3.706;2022-11-15T04:49:39;76412.72;;;-146.65;100.00
57094;BME280;42970;50.996;3.706;2022-11-15T04:52:04;76418.78;;;-146.65;100.00
57094;BME280;42970;50.996;3.706;2022-11-15T04:54:29;76412.72;;;-146.65;100.00
57094;BME280;42970;50.996;3.706;2022-11-15T04:56:54;76416.78;;;-146.65;100.00
57094;BME280;42970;50.996;3.706;2022-11-15T04:59:20;76422.81;;;-146.65;100.00
57094;BME280;42970;50.996;3.706;2022-11-15T05:01:45;76410.72;;;-146.65;100.00
57094;BME280;42970;50.996;3.706;2022-11-15T05:04:10;76416.78;;;-146.65;100.00
57094;BME280;42970;50.996;3.706;2022-11-15T05:06:45;76416.78;;;-146.65;100.00
57094;BME280;42970;50.996;3.706;2022-11-15T05:09:11;76428.88;;;-146.65;100.00
57094;BME280;42970;50.996;3.706;2022-11-15T05:11:38;76434.94;;;-146.65;100.00
57094;BME280;42970;50.996;3.706;2022-11-15T05:14:03;76432.91;;;-146.65;100.00
57094;BME280;42970;50.996;3.706;2022-11-15T05:16:28;76426.84;;;-146.65;100.00
57094;BME280;42970;50.996;3.706;2022-11-15T05:18:54;76424.84;;;-146.65;100.00
57094;BME280;42970;50.996;3.706;2022-11-15T05:21:19;76416.78;;;-146.65;100.00
57094;BME280;42970;50.996;3.706;2022-11-15T05:23:45;76436.94;;;-146.65;100.00
57094;BME280;42970;50.996;3.706;2022-11-15T05:26:10;76447.03;;;-146.65;100.00
57094;BME280;42970;50.996;3.706;2022-11-15T05:28:35;76449.03;;;-146.65;100.00
57094;BME280;42970;50.996;3.706;2022-11-15T05:31:02;76469.22;;;-146.65;100.00
57094;BME280;42970;50.996;3.706;2022-11-15T05:33:27;76449.03;;;-146.65;100.00
57094;BME280;42970;50.996;3.706;2022-11-15T05:35:57;76453.09;;;-146.65;100.00
57094;BME280;42970;50.996;3.706;2022-11-15T05:38:25;76449.03;;;-146.65;100.00
57094;BME280;42970;50.996;3.706;2022-11-15T05:40:50;76449.03;;;-146.65;100.00
57094;BME280;42970;50.996;3.706;2022-11-15T05:43:16;76449.03;;;-146.65;100.00
57094;BME280;42970;50.996;3.706;2022-11-15T05:45:41;76449.03;;;-146.65;100.00
57094;BME280;42970;50.996;3.706;2022-11-15T05:48:07;76453.09;;;-146.65;100.00
57094;BME280;42970;50.996;3.706;2022-11-15T05:50:33;76453.09;;;-146.65;100.00
57094;BME280;42970;50.996;3.706;2022-11-15T05:52:59;76475.28;;;-146.65;100.00
57094;BME280;42970;50.996;3.706;2022-11-15T05:55:25;76481.31;;;-146.65;100.00
57094;BME280;42970;50.996;3.706;2022-11-15T05:57:50;76493.44;;;-146.65;100.00
57094;BME280;42970;50.996;3.706;2022-11-15T06:00:16;76499.50;;;-146.65;100.00
57094;BME280;42970;50.996;3.706;2022-11-15T06:02:41;76489.41;;;-146.65;100.00
57094;BME280;42970;50.996;3.706;2022-11-15T06:05:07;76491.41;;;-146.65;100.00
57094;BME280;42970;50.996;3.706;2022-11-15T06:07:32;76493.44;;;-146.65;100.00
57094;BME280;42970;50.996;3.706;2022-11-15T06:09:58;76501.50;;;-146.65;100.00
57094;BME280;42970;50.996;3.706;2022-11-15T06:12:23;76507.56;;;-146.65;100.00
57094;BME280;42970;50.996;3.706;2022-11-15T06:14:48;76499.50;;;-146.65;100.00
57094;BME280;42970;50.996;3.706;2022-11-15T06:17:13;76513.59;;;-146.65;100.00
57094;BME280;42970;50.996;3.706;2022-11-15T06:19:39;76525.72;;;-146.65;100.00
57094;BME280;42970;50.996;3.706;2022-11-15T06:22:04;76519.66;;;-146.65;100.00
57094;BME280;42970;50.996;3.706;2022-11-15T06:24:29;76529.75;;;-146.65;100.00
57094;BME280;42970;50.996;3.706;2022-11-15T06:26:55;76517.66;;;-146.65;100.00
57094;BME280;42970;50.996;3.706;2022-11-15T06:29:20;76521.69;;;-146.65;100.00
57094;BME280;42970;50.996;3.706;2022-11-15T06:31:45;76517.66;;;-146.65;100.00
57094;BME280;42970;50.996;3.706;2022-11-15T06:34:10;76525.72;;;-146.65;100.00
57094;BME280;42970;50.996;3.706;2022-11-15T06:36:36;76531.75;;;-146.65;100.00
57094;BME280;42970;50.996;3.706;2022-11-15T06:39:03;76529.75;;;-146.65;100.00
57094;BME280;42970;50.996;3.706;2022-11-15T06:41:29;76533.78;;;-146.65;100.00
57094;BME280;42970;50.996;3.706;2022-11-15T06:43:54;76525.72;;;-146.65;100.00
57094;BME280;42970;50.996;3.706;2022-11-15T06:46:19;76519.66;;;-146.65;100.00
57094;BME280;42970;50.996;3.706;2022-11-15T06:48:44;76511.59;;;-146.65;100.00
57094;BME280;42970;50.996;3.706;2022-11-15T06:51:10;76493.44;;;-146.65;100.00
57094;BME280;42970;50.996;3.706;2022-11-15T06:53:35;76481.31;;;-146.65;100.00
57094;BME280;42970;50.996;3.706;2022-11-15T06:56:01;76481.31;;;-146.65;100.00
57094;BME280;42970;50.996;3.706;2022-11-15T06:58:27;76477.28;;;-146.65;100.00
57094;BME280;42970;50.996;3.706;2022-11-15T07:00:52;76471.25;;;-146.65;100.00
57094;BME280;42970;50.996;3.706;2022-11-15T07:03:21;76469.22;;;-146.65;100.00
57094;BME280;42970;50.996;3.706;2022-11-15T07:05:50;76463.16;;;-146.65;100.00
57094;BME280;42970;50.996;3.706;2022-11-15T07:08:16;76461.16;;;-146.65;100.00
57094;BME280;42970;50.996;3.706;2022-11-15T07:10:41;76457.13;;;-146.65;100.00
57094;BME280;42970;50.996;3.706;2022-11-15T07:13:06;76455.09;;;-146.65;100.00
57094;BME280;42970;50.996;3.706;2022-11-15T07:15:32;76440.97;;;-146.65;100.00
57094;BME280;42970;50.996;3.706;2022-11-15T07:18:00;76432.91;;;-146.65;100.00
57094;BME280;42970;50.996;3.706;2022-11-15T07:20:25;76424.84;;;-146.65;100.00
57094;BME280;42970;50.996;3.706;2022-11-15T07:22:51;76424.84;;;-146.65;100.00
57094;BME280;42970;50.996;3.706;2022-11-15T07:25:16;76420.81;;;-146.65;100.00
57094;BME280;42970;50.996;3.706;2022-11-15T07:27:41;76420.81;;;-146.65;100.00
57094;BME280;42970;50.996;3.706;2022-11-15T07:30:07;76412.72;;;-146.65;100.00
57094;BME280;42970;50.996;3.706;2022-11-15T07:32:32;76410.72;;;-146.65;100.00
57094;BME280;42970;50.996;3.706;2022-11-15T07:34:57;76400.63;;;-146.65;100.00
57094;BME280;42970;50.996;3.706;2022-11-15T07:37:22;76384.50;;;-146.65;100.00
57094;BME280;42970;50.996;3.706;2022-11-15T07:39:48;76376.41;;;-146.65;100.00
57094;BME280;42970;50.996;3.706;2022-11-15T07:42:13;76374.41;;;-146.65;100.00
57094;BME280;42970;50.996;3.706;2022-11-15T07:44:57;76372.38;;;-146.65;100.00
57094;BME280;42970;50.996;3.706;2022-11-15T07:47:22;76368.34;;;-146.65;100.00
57094;BME280;42970;50.996;3.706;2022-11-15T07:49:48;76364.31;;;-146.65;100.00
57094;BME280;42970;50.996;3.706;2022-11-15T07:52:13;76362.28;;;-146.65;100.00
57094;BME280;42970;50.996;3.706;2022-11-15T07:54:38;76356.25;;;-146.65;100.00
57094;BME280;42970;50.996;3.706;2022-11-15T07:57:04;76354.22;;;-146.65;100.00
57094;BME280;42970;50.996;3.706;2022-11-15T07:59:30;76354.22;;;-146.65;100.00
57094;BME280;42970;50.996;3.706;2022-11-15T08:01:55;76348.19;;;-146.65;100.00
57094;BME280;42970;50.996;3.706;2022-11-15T08:04:20;76344.13;;;-146.65;100.00
57094;BME280;42970;50.996;3.706;2022-11-15T08:06:46;76334.06;;;-146.65;100.00
57094;BME280;42970;50.996;3.706;2022-11-15T08:09:11;76328.00;;;-146.65;100.00
57094;BME280;42970;50.996;3.706;2022-11-15T08:11:36;76315.91;;;-146.65;100.00
57094;BME280;42970;50.996;3.706;2022-11-15T08:14:02;76311.84;;;-146.65;100.00
57094;BME280;42970;50.996;3.706;2022-11-15T08:16:27;76299.75;;;-146.65;100.00
57094;BME280;42970;50.996;3.706;2022-11-15T08:18:53;76291.69;;;-146.65;100.00
57094;BME280;42970;50.996;3.706;2022-11-15T08:21:19;76289.66;;;-146.65;100.00
57094;BME280;42970;50.996;3.706;2022-11-15T08:23:45;76277.56;;;-146.65;100.00
57094;BME280;42970;50.996;3.706;2022-11-15T08:26:10;76257.38;;;-146.65;100.00
57094;BME280;42970;50.996;3.706;2022-11-15T08:28:35;76259.41;;;-146.65;100.00
57094;BME280;42970;50.996;3.706;2022-11-15T08:31:02;76251.34;;;-146.65;100.00
57094;BME280;42970;50.996;3.706;2022-11-15T08:33:28;76243.28;;;-146.65;100.00
57094;BME280;42970;50.996;3.706;2022-11-15T08:35:56;76227.13;;;-146.65;100.00
57094;BME280;42970;50.996;3.706;2022-11-15T08:38:21;76231.16;;;-146.65;100.00
57094;BME280;42970;50.996;3.706;2022-11-15T08:40:47;76235.19;;;-146.65;100.00
57094;BME280;42970;50.996;3.706;2022-11-15T08:43:12;76235.19;;;-146.65;100.00
57094;BME280;42970;50.996;3.706;2022-11-15T08:45:37;76194.84;;;-146.65;99.71
57094;BME280;42970;50.996;3.706;2022-11-15T08:48:03;76138.38;;;-146.65;96.97
57094;BME280;42970;50.996;3.706;2022-11-15T08:50:28;76132.31;;;-146.65;96.42
57094;BME280;42970;50.996;3.706;2022-11-15T08:52:54;76108.09;;;-146.65;95.81
57094;BME280;42970;50.996;3.706;2022-11-15T08:55:19;76083.91;;;-146.65;94.91
57094;BME280;42970;50.996;3.706;2022-11-15T08:57:44;76069.78;;;-146.65;93.91
57094;BME280;42970;50.996;3.706;2022-11-15T09:00:10;76041.53;;;-146.65;92.69
57094;BME280;42970;50.996;3.706;2022-11-15T09:02:37;76061.72;;;-146.65;91.85
57094;BME280;42970;50.996;3.706;2022-11-15T09:05:02;76027.41;;;-146.65;91.21
57094;BME280;42970;50.996;3.706;2022-11-15T09:07:28;76003.22;;;-146.65;90.31
57094;BME280;42970;50.996;3.706;2022-11-15T09:09:54;76015.31;;;-146.65;90.26
57094;BME280;42970;50.996;3.706;2022-11-15T09:12:20;76029.44;;;-146.65;89.81
57094;BME280;42970;50.996;3.706;2022-11-15T09:14:45;75981.00;;;-146.65;89.58
57094;BME280;42970;50.996;3.706;2022-11-15T09:17:10;75952.78;;;-146.65;87.23
57094;BME280;42970;50.996;3.706;2022-11-15T09:19:35;75950.75;;;-146.65;86.97
57094;BME280;42970;50.996;3.706;2022-11-15T09:22:02;75950.75;;;-146.65;86.16
57094;BME280;42970;50.996;3.706;2022-11-15T09:24:30;75920.50;;;-146.65;86.54
57094;BME280;42970;50.996;3.706;2022-11-15T09:26:55;75876.13;;;-146.65;85.43
57094;BME280;42970;50.996;3.706;2022-11-15T09:29:21;75894.28;;;-146.65;84.11
57094;BME280;42970;50.996;3.706;2022-11-15T09:31:46;75904.34;;;-146.65;83.98
57094;BME280;42970;50.996;3.706;2022-11-15T09:34:11;75926.56;;;-146.65;84.88
57094;BME280;42970;50.996;3.706;2022-11-15T09:36:37;75896.28;;;-146.65;84.45
57094;BME280;42970;50.996;3.706;2022-11-15T09:39:02;75876.13;;;-146.65;83.61
57094;BME280;42970;50.996;3.706;2022-11-15T09:47:32;75823.66;;;-146.65;81.47
57094;BME280;42970;50.996;3.706;2022-11-15T09:49:28;75843.84;;;-146.65;82.62
57094;BME280;42970;50.996;3.706;2022-11-15T09:51:54;75821.66;;;-146.65;81.74
57094;BME280;42970;50.996;3.706;2022-11-15T09:56:48;75779.28;;;-146.65;79.85
57094;BME280;42970;50.996;3.706;2022-11-15T09:59:33;75779.28;;;-146.65;80.21
57094;BME280;42970;50.996;3.706;2022-11-15T10:04:50;75839.81;;;-146.65;82.03
57094;BME280;42970;50.996;3.706;2022-11-15T10:07:20;75884.19;;;-146.65;83.49
57094;BME280;42970;50.996;3.706;2022-11-15T10:10:00;75884.19;;;-146.65;83.23
57094;BME280;42970;50.996;3.706;2022-11-15T10:12:28;75888.22;;;-146.65;84.14
57094;BME280;42970;50.996;3.706;2022-11-15T10:14:58;75851.91;;;-146.65;83.30
57094;BME280;42970;50.996;3.706;2022-11-15T10:17:36;75805.50;;;-146.65;80.85
57094;BME280;42970;50.996;3.706;2022-11-15T10:22:46;75702.63;;;-146.65;77.87
57094;BME280;42970;50.996;3.706;2022-11-15T10:27:39;75785.34;;;-146.65;79.63
57094;BME280;42970;50.996;3.706;2022-11-15T10:30:16;75742.97;;;-146.65;79.88
57094;BME280;42970;50.996;3.706;2022-11-15T10:32:42;75666.34;;;-146.65;76.80
57094;BME280;42970;50.996;3.706;2022-11-15T10:37:42;75662.31;;;-146.65;75.06
57094;BME280;42970;50.996;3.706;2022-11-15T10:40:19;75656.25;;;-146.65;76.16
57094;BME280;42970;50.996;3.706;2022-11-15T10:42:45;75613.88;;;-146.65;75.33
57094;BME280;42970;50.996;3.706;2022-11-15T10:45:44;75597.75;;;-146.65;72.13
57094;BME280;42970;50.996;3.706;2022-11-15T10:50:36;75646.16;;;-146.65;74.05
57094;BME280;42970;50.996;3.706;2022-11-15T10:53:01;75595.72;;;-146.65;73.96
57094;BME280;42970;50.996;3.706;2022-11-15T10:55:28;75623.97;;;-146.65;74.25
57094;BME280;42970;50.996;3.706;2022-11-15T10:57:55;75573.53;;;-146.65;73.07
57094;BME280;42970;50.996;3.706;2022-11-15T11:00:29;75496.91;;;-146.65;71.30
57094;BME280;42970;50.996;3.706;2022-11-15T11:05:31;75504.97;;;-146.65;71.35
57094;BME280;42970;50.996;3.706;2022-11-15T11:08:01;75492.88;;;-146.65;70.18
57094;BME280;42970;50.996;3.706;2022-11-15T11:10:27;75565.47;;;-146.65;72.87
57094;BME280;42970;50.996;3.706;2022-11-15T11:12:53;75621.97;;;-146.65;74.30
57094;BME280;42970;50.996;3.706;2022-11-15T11:15:18;75591.69;;;-146.65;75.25
57094;BME280;42970;50.996;3.706;2022-11-15T11:30:22;75652.22;;;-146.65;77.28
57094;BME280;42970;50.996;3.706;2022-11-15T11:35:35;75634.06;;;-146.65;77.38
57094;BME280;42970;50.996;3.706;2022-11-15T11:46:38;75630.03;;;-146.65;77.97
57094;BME280;42970;50.996;3.706;2022-11-15T11:49:02;75636.06;;;-146.65;78.08
57094;BME280;42970;50.996;3.706;2022-11-15T11:51:33;75623.97;;;-146.65;78.18
57094;BME280;42970;50.996;3.706;2022-11-15T11:56:44;75638.09;;;-146.65;78.91
57094;BME280;42970;50.996;3.706;2022-11-15T12:01:42;75628.00;;;-146.65;79.37
57094;BME280;42970;50.996;3.706;2022-11-15T12:04:09;75607.84;;;-146.65;79.93
57094;BME280;42970;50.996;3.706;2022-11-15T12:06:38;75617.94;;;-146.65;80.21
57094;BME280;42970;50.996;3.706;2022-11-15T12:11:43;75619.94;;;-146.65;80.56
57094;BME280;42970;50.996;3.706;2022-11-15T12:14:25;75613.88;;;-146.65;81.73
57094;BME280;42970;50.996;3.706;2022-11-15T12:16:52;75615.91;;;-146.65;81.10
57094;BME280;42970;50.996;3.706;2022-11-15T12:19:17;75597.75;;;-146.65;81.83
57094;BME280;42970;50.996;3.706;2022-11-15T12:21:48;75605.81;;;-146.65;81.66
57094;BME280;42970;50.996;3.706;2022-11-15T12:27:18;75585.66;;;-146.65;81.79
57094;BME280;42970;50.996;3.706;2022-11-15T12:29:48;75583.63;;;-146.65;82.65
57094;BME280;42970;50.996;3.706;2022-11-15T12:32:24;75587.66;;;-146.65;82.09
57094;BME280;42970;50.996;3.706;2022-11-15T12:34:50;75581.63;;;-146.65;82.42
57094;BME280;42970;50.996;3.706;2022-11-15T12:40:13;75565.47;;;-146.65;81.99
57094;BME280;42970;50.996;3.706;2022-11-15T12:42:56;75541.28;;;-146.65;82.11
57094;BME280;42970;50.996;3.706;2022-11-15T12:47:50;75545.31;;;-146.65;82.58
57094;BME280;42970;50.996;3.706;2022-11-15T12:50:15;75543.28;;;-146.65;82.82
57094;BME280;42970;50.996;3.706;2022-11-15T12:53:24;75539.25;;;-146.65;82.54
57094;BME280;42970;50.996;3.706;2022-11-15T12:55:31;75537.25;;;-146.65;82.94
57094;BME280;42970;50.996;3.706;2022-11-15T12:57:56;75529.16;;;-146.65;83.25
57094;BME280;42970;50.996;3.706;2022-11-15T13:00:41;75525.13;;;-146.65;83.50
57094;BME280;42970;50.996;3.706;2022-11-15T13:03:20;75527.16;;;-146.65;82.61
57094;BME280;42970;50.996;3.706;2022-11-15T13:05:52;75525.13;;;-146.65;82.37
57094;BME280;42970;50.996;3.706;2022-11-15T13:08:37;75525.13;;;-146.65;82.69
57094;BME280;42970;50.996;3.706;2022-11-15T13:11:46;75525.13;;;-146.65;83.19
57094;BME280;42970;50.996;3.706;2022-11-15T13:13:51;75517.06;;;-146.65;83.14
57094;BME280;42970;50.996;3.706;2022-11-15T13:16:18;75511.03;;;-146.65;83.48
57094;BME280;42970;50.996;3.706;2022-11-15T13:18:50;75513.03;;;-146.65;83.48
57094;BME280;42970;50.996;3.706;2022-11-15T13:21:19;75511.03;;;-146.65;82.99
57094;BME280;42970;50.996;3.706;2022-11-15T13:24:04;75500.94;;;-146.65;82.97
57094;BME280;42970;50.996;3.706;2022-11-15T13:26:29;75500.94;;;-146.65;82.40
57094;BME280;42970;50.996;3.706;2022-11-15T13:28:56;75496.91;;;-146.65;82.91
57094;BME280;42970;50.996;3.706;2022-11-15T13:31:34;75500.94;;;-146.65;83.85
57094;BME280;42970;50.996;3.706;2022-11-15T13:34:02;75500.94;;;-146.65;84.58
57094;BME280;42970;50.996;3.706;2022-11-15T13:36:31;75507.00;;;-146.65;85.12
57094;BME280;42970;50.996;3.706;2022-11-15T13:39:04;75502.94;;;-146.65;85.05
57094;BME280;42970;50.996;3.706;2022-11-15T13:41:31;75496.91;;;-146.65;84.45
57094;BME280;42970;50.996;3.706;2022-11-15T13:43:57;75486.81;;;-146.65;84.87
57094;BME280;42970;50.996;3.706;2022-11-15T13:46:26;75488.84;;;-146.65;85.24
57094;BME280;42970;50.996;3.706;2022-11-15T13:48:59;75492.88;;;-146.65;84.44
57094;BME280;42970;50.996;3.706;2022-11-15T13:51:36;75480.75;;;-146.65;84.43
57094;BME280;42970;50.996;3.706;2022-11-15T13:54:35;75492.88;;;-146.65;85.38
57094;BME280;42970;50.996;3.706;2022-11-15T13:56:54;75502.94;;;-146.65;87.39
57094;BME280;42970;50.996;3.706;2022-11-15T13:59:26;75521.09;;;-146.65;89.11
57094;BME280;42970;50.996;3.706;2022-11-15T14:01:52;75527.16;;;-146.65;91.12
57094;BME280;42970;50.996;3.706;2022-11-15T14:04:19;75539.25;;;-146.65;91.42
57094;BME280;42970;50.996;3.706;2022-11-15T14:06:46;75547.31;;;-146.65;92.22
57094;BME280;42970;50.996;3.706;2022-11-15T14:09:18;75553.38;;;-146.65;93.29
57094;BME280;42970;50.996;3.706;2022-11-15T14:11:50;75559.44;;;-146.65;94.09
57094;BME280;42970;50.996;3.706;2022-11-15T14:14:16;75565.47;;;-146.65;95.29